Airfield :
LOGIN :

Register | Disclaimer

   EN    FR    IT 

 










Legend :    VFR   Marginal VFR   IFR   Intensive IFR   Very Intensive IFR
Visi :
Ceiling :
>= 8 km
>= 3000ft
5 to 8 km
1000 to 3000 ft
1500m to 5 km
500 to 1000 ft
800 to 1500m
200 to 500 ft
< 800m
< 200 ft
Symbols :   Thunderstorms  Fog  Heavy snow  Heavy precipitations  Wind > 20 kt
SIGMETs :     Misc.  Thunderstorms  Icing  Turbulence  Mountain Waves  Volcanic Ashes






- Airport Elevation : 650 ft
- IATA code : ZJI


LSZL - Locarno

CURRENT METAR :
  • 290820Z AUTO 32003KT 270V020 9999NDV -RA FEW019 BKN028 13/12 Q1009 RERA RMK

EXPIRED METARs :
  • 290750Z AUTO VRB01KT 9999NDV RA FEW028 SCT033 BKN038 13/12 Q1009 RMK
  • 290720Z AUTO VRB02KT 7000NDV RA FEW016 SCT027 BKN038 13/13 Q1008 RMK
  • 290650Z AUTO VRB01KT 4300NDV RA FEW004 SCT023 13/13 Q1008 RMK
  • 290620Z AUTO VRB01KT 9000NDV -RA SCT034 14/13 Q1008 RERA RMK
  • 290550Z AUTO 00000KT 7000NDV RA FEW012 BKN030 14/12 Q1008 RMK

TAF TAF LSZL
Valid from the 29 at 06:00 until the 29 at 15:00 UTC


290525Z 2906/2915 VRB02KT 6000 RA FEW012 BKN024
PROB40 2906/2908 4500 BKN013
BECMG 2908/2911 NSW



MET'MAP, your aeronautical weather chart ! - Copyright ORBIFLY December 2007 - Disclaimer

ORBIFLY MET'MAP TEAM :

Programming & Development : Alexandra Zaïnal
Original concept : Baudouin d'Aumeries
Technical & hardware support : Manuel Goepfert
Assistance : Marc-Olivier Méhu

Contact : metmap@orbifly.com




SOURCES & CREDITS :

   NOAA